Time;durP1;ratioP1;P1;durP2;ratioP2;P2;SDS_P1;SDS_P2;PMS_P1;PMS_P2;Temp;Humidity;BMP_temperature;BMP_pressure;BME280_temperature;BME280_humidity;BME280_pressure;Samples;Min_cycle;Max_cycle;Signal;HPM_P1;HPM_P2
2023/08/23 00:01:37;;;;;;;10.98;9.80;;;26.70;99.90;;;;;;6232559;28;89382;-66
2023/08/23 00:04:39;;;;;;;10.55;9.65;;;26.70;99.90;;;;;;6232475;28;87606;-66
2023/08/23 00:07:41;;;;;;;11.10;10.10;;;26.70;99.90;;;;;;6236996;27;87370;-66
2023/08/23 00:10:43;;;;;;;10.50;9.52;;;26.70;99.90;;;;;;6241211;28;89083;-66
2023/08/23 00:13:46;;;;;;;10.90;9.90;;;26.70;99.90;;;;;;6239853;28;89314;-66
2023/08/23 00:16:50;;;;;;;10.60;9.57;;;26.70;99.90;;;;;;6247010;28;90042;-65
2023/08/23 00:19:52;;;;;;;10.60;9.68;;;26.80;99.90;;;;;;6243806;28;88981;-66
2023/08/23 00:22:54;;;;;;;10.38;9.38;;;26.70;99.90;;;;;;6244655;27;89087;-66
2023/08/23 00:25:56;;;;;;;11.50;10.45;;;26.80;99.90;;;;;;6244711;28;89056;-66
2023/08/23 00:28:58;;;;;;;11.40;10.15;;;26.80;99.90;;;;;;6245809;28;89094;-66
2023/08/23 00:32:01;;;;;;;10.20;9.30;;;26.70;99.90;;;;;;6237592;28;89079;-66
2023/08/23 00:35:03;;;;;;;11.00;10.00;;;26.70;99.90;;;;;;6243606;28;89199;-66
2023/08/23 00:38:05;;;;;;;10.95;9.88;;;26.70;99.90;;;;;;6244511;28;88276;-66
2023/08/23 00:41:07;;;;;;;10.95;9.95;;;26.70;99.90;;;;;;6242800;28;89308;-66
2023/08/23 00:44:09;;;;;;;10.77;9.77;;;26.70;99.90;;;;;;6240220;28;88714;-66
2023/08/23 00:47:13;;;;;;;10.52;9.63;;;26.80;99.90;;;;;;6241896;28;90111;-66
2023/08/23 00:50:15;;;;;;;10.68;9.65;;;26.70;99.90;;;;;;6241454;27;89117;-67
2023/08/23 00:53:17;;;;;;;9.98;9.07;;;26.80;99.90;;;;;;6233703;28;87807;-66
2023/08/23 00:56:19;;;;;;;10.77;9.85;;;26.70;99.90;;;;;;6241147;27;87978;-67
2023/08/23 00:59:21;;;;;;;11.02;10.05;;;26.80;99.90;;;;;;6244529;28;88970;-67
2023/08/23 01:02:24;;;;;;;12.35;9.77;;;26.70;99.90;;;;;;6230364;28;88991;-66
2023/08/23 01:05:40;;;;;;;10.68;9.68;;;26.70;99.90;;;;;;6238021;28;89083;-67
2023/08/23 01:08:49;;;;;;;10.88;9.82;;;26.80;99.90;;;;;;6232544;28;88591;-66
2023/08/23 01:11:57;;;;;;;10.65;9.52;;;26.80;99.90;;;;;;6242646;27;89064;-67
2023/08/23 01:15:03;;;;;;;10.40;9.40;;;26.70;99.90;;;;;;6244979;27;89121;-66
2023/08/23 01:18:07;;;;;;;10.57;9.70;;;26.70;99.90;;;;;;6230161;28;90111;-66
2023/08/23 01:21:12;;;;;;;10.57;9.65;;;26.80;99.90;;;;;;6243158;28;89053;-66
2023/08/23 01:24:15;;;;;;;10.70;9.73;;;26.70;99.90;;;;;;6250288;28;89204;-67
2023/08/23 01:27:17;;;;;;;10.75;9.85;;;26.70;99.90;;;;;;6238987;27;89106;-67
2023/08/23 01:30:19;;;;;;;10.27;9.38;;;26.80;99.90;;;;;;6237277;28;89029;-66
2023/08/23 01:33:26;;;;;;;10.90;10.00;;;26.70;99.90;;;;;;6236072;28;89053;-67
2023/08/23 01:36:29;;;;;;;10.85;9.70;;;26.70;99.90;;;;;;6228914;28;89342;-67
2023/08/23 01:39:34;;;;;;;10.52;9.60;;;26.80;99.90;;;;;;6242112;28;88451;-66
2023/08/23 01:42:36;;;;;;;10.18;9.27;;;26.80;99.90;;;;;;6240159;28;89159;-67
2023/08/23 01:45:38;;;;;;;9.80;8.85;;;26.80;99.90;;;;;;6230240;28;90286;-67
2023/08/23 01:48:40;;;;;;;11.07;9.98;;;26.80;99.90;;;;;;6240104;28;90399;-67
2023/08/23 01:51:42;;;;;;;10.50;9.60;;;26.80;99.90;;;;;;6234684;28;88982;-67
2023/08/23 01:54:45;;;;;;;10.40;9.50;;;26.80;99.90;;;;;;6234171;27;89539;-67
2023/08/23 01:57:48;;;;;;;10.75;9.75;;;26.80;99.90;;;;;;6233223;28;89179;-67
2023/08/23 02:00:50;;;;;;;10.88;9.98;;;26.80;99.90;;;;;;6231959;28;89014;-67
2023/08/23 02:03:51;;;;;;;10.73;9.82;;;26.70;99.90;;;;;;6240304;28;87944;-67
2023/08/23 02:06:53;;;;;;;10.32;9.43;;;26.80;99.90;;;;;;6237302;28;89703;-67
2023/08/23 02:09:57;;;;;;;10.55;9.52;;;26.70;99.90;;;;;;6239334;28;88335;-67
2023/08/23 02:12:59;;;;;;;10.30;9.50;;;26.70;99.90;;;;;;6248143;28;89078;-67
2023/08/23 02:16:01;;;;;;;10.95;9.88;;;26.80;99.90;;;;;;6233103;27;89057;-67
2023/08/23 02:19:03;;;;;;;10.30;9.30;;;26.80;99.90;;;;;;6230516;28;90022;-67
2023/08/23 02:22:05;;;;;;;10.63;9.63;;;26.80;99.90;;;;;;6241560;27;88960;-66
2023/08/23 02:25:09;;;;;;;10.93;9.90;;;26.70;99.90;;;;;;6239718;27;88771;-67
2023/08/23 02:28:11;;;;;;;11.45;10.20;;;26.70;99.90;;;;;;6255669;27;89516;-67
2023/08/23 02:31:13;;;;;;;10.93;10.02;;;26.80;99.90;;;;;;6234730;27;89034;-66
2023/08/23 02:34:15;;;;;;;10.25;9.35;;;26.70;99.90;;;;;;6241899;27;89320;-67
2023/08/23 02:37:16;;;;;;;11.00;10.00;;;26.80;99.90;;;;;;6249273;27;89072;-66
2023/08/23 02:40:20;;;;;;;11.02;9.95;;;26.70;99.90;;;;;;6246299;27;87224;-66
2023/08/23 02:43:22;;;;;;;11.73;9.90;;;26.70;99.90;;;;;;6235077;27;89211;-67
2023/08/23 02:46:24;;;;;;;10.55;9.65;;;26.70;99.90;;;;;;6235751;27;89081;-67
2023/08/23 02:49:26;;;;;;;10.75;9.73;;;26.70;99.90;;;;;;6241791;27;89986;-67
2023/08/23 02:52:28;;;;;;;10.23;9.23;;;26.70;99.90;;;;;;6232971;27;89104;-67
2023/08/23 02:55:34;;;;;;;10.38;9.38;;;26.70;99.90;;;;;;6245102;27;89435;-66
2023/08/23 02:58:36;;;;;;;10.98;9.88;;;26.70;99.90;;;;;;6248854;27;88143;-66
2023/08/23 03:01:38;;;;;;;11.40;9.55;;;26.70;99.90;;;;;;6251188;27;88032;-67
2023/08/23 03:04:40;;;;;;;10.32;9.32;;;26.80;99.90;;;;;;6246093;27;88256;-67
2023/08/23 03:07:42;;;;;;;11.23;10.23;;;26.70;99.90;;;;;;6248319;27;89048;-66
2023/08/23 03:10:46;;;;;;;10.65;9.65;;;26.70;99.90;;;;;;6252956;27;88337;-67
2023/08/23 03:13:48;;;;;;;10.82;9.73;;;26.80;99.90;;;;;;6245218;27;89047;-67
2023/08/23 03:16:50;;;;;;;11.60;10.50;;;26.70;99.90;;;;;;6247452;27;89081;-66
2023/08/23 03:19:52;;;;;;;11.95;10.82;;;26.70;99.90;;;;;;6241889;27;88901;-67
2023/08/23 03:22:54;;;;;;;11.27;10.27;;;26.70;99.90;;;;;;6247358;28;89094;-67
2023/08/23 03:25:57;;;;;;;14.57;9.23;;;26.60;99.90;;;;;;6243955;28;89387;-66
2023/08/23 03:28:59;;;;;;;10.00;9.00;;;26.60;99.90;;;;;;6249760;28;89236;-67
2023/08/23 03:32:01;;;;;;;9.07;8.25;;;26.40;99.90;;;;;;6238641;28;89192;-67
2023/08/23 03:35:03;;;;;;;9.25;8.27;;;26.30;99.90;;;;;;6242825;27;89026;-68
2023/08/23 03:38:05;;;;;;;13.05;8.73;;;26.20;99.90;;;;;;6241899;28;89037;-67
2023/08/23 03:41:14;;;;;;;12.95;8.15;;;26.10;99.90;;;;;;6237469;28;88371;-67
2023/08/23 03:44:16;;;;;;;9.02;6.85;;;26.00;99.90;;;;;;6234471;28;89024;-67
2023/08/23 03:47:18;;;;;;;9.35;6.80;;;25.90;99.90;;;;;;6237849;28;89116;-67
2023/08/23 03:50:20;;;;;;;9.30;6.78;;;25.90;99.90;;;;;;6242077;28;90219;-67
2023/08/23 03:53:22;;;;;;;9.55;6.35;;;26.00;99.90;;;;;;6243010;28;88992;-67
2023/08/23 03:56:25;;;;;;;9.95;6.13;;;26.00;99.90;;;;;;6243271;28;89028;-67
2023/08/23 03:59:27;;;;;;;6.05;5.38;;;26.00;99.90;;;;;;6235314;28;89164;-67
2023/08/23 04:02:29;;;;;;;7.68;5.35;;;26.10;99.90;;;;;;6243911;28;88996;-66
2023/08/23 04:05:31;;;;;;;7.80;5.38;;;26.10;99.90;;;;;;6250184;27;88993;-67
2023/08/23 04:08:33;;;;;;;6.13;5.25;;;26.20;99.90;;;;;;6246941;27;89419;-66
2023/08/23 04:11:36;;;;;;;8.13;5.80;;;26.20;99.90;;;;;;6239196;28;89390;-67
2023/08/23 04:14:38;;;;;;;6.43;5.68;;;26.20;99.90;;;;;;6226327;28;89115;-67
2023/08/23 04:17:40;;;;;;;7.63;5.72;;;26.20;99.90;;;;;;6234795;28;89490;-66
2023/08/23 04:20:42;;;;;;;5.65;5.03;;;26.30;99.90;;;;;;6248171;28;90103;-67
2023/08/23 04:23:44;;;;;;;7.53;5.25;;;26.30;99.90;;;;;;6242246;28;89009;-67
2023/08/23 04:26:48;;;;;;;6.88;5.95;;;26.30;99.90;;;;;;6241839;27;89050;-66
2023/08/23 04:29:50;;;;;;;5.93;5.32;;;26.30;99.90;;;;;;6234623;27;89103;-67
2023/08/23 04:32:52;;;;;;;5.95;5.15;;;26.30;99.90;;;;;;6236659;28;89115;-66
2023/08/23 04:35:54;;;;;;;6.50;5.47;;;26.30;99.90;;;;;;6246333;28;89476;-66
2023/08/23 04:38:55;;;;;;;8.93;5.57;;;26.40;99.90;;;;;;6242713;28;89088;-67
2023/08/23 04:41:59;;;;;;;6.57;5.72;;;26.40;99.90;;;;;;6238124;28;88415;-67
2023/08/23 04:45:01;;;;;;;10.60;6.55;;;26.40;99.90;;;;;;6242471;28;89039;-67
2023/08/23 04:48:03;;;;;;;7.57;5.90;;;26.40;99.90;;;;;;6233050;28;89486;-67
2023/08/23 04:51:08;;;;;;;8.20;5.78;;;26.40;99.90;;;;;;6232482;28;88903;-67
2023/08/23 04:54:11;;;;;;;11.02;5.82;;;26.50;99.90;;;;;;6239329;28;89012;-67
2023/08/23 04:57:14;;;;;;;6.57;5.50;;;26.50;99.90;;;;;;6234893;28;89019;-67
2023/08/23 05:00:17;;;;;;;7.38;5.38;;;26.40;99.90;;;;;;6243670;28;89026;-68
2023/08/23 05:03:19;;;;;;;6.68;5.47;;;26.40;99.90;;;;;;6230428;28;89030;-68
2023/08/23 05:06:21;;;;;;;6.85;5.40;;;26.40;99.90;;;;;;6231537;28;89050;-68
2023/08/23 05:09:23;;;;;;;10.05;6.45;;;26.30;99.90;;;;;;6245884;27;89011;-68
2023/08/23 05:12:26;;;;;;;7.38;5.68;;;26.30;99.90;;;;;;6240030;28;88349;-68
2023/08/23 05:15:28;;;;;;;7.53;5.38;;;26.40;99.90;;;;;;6235586;28;89085;-68
2023/08/23 05:18:30;;;;;;;8.73;5.60;;;26.40;99.90;;;;;;6235612;28;88728;-68
2023/08/23 05:21:32;;;;;;;6.47;5.13;;;26.40;99.90;;;;;;6242167;28;90134;-68
2023/08/23 05:24:34;;;;;;;7.93;5.50;;;26.40;99.90;;;;;;6237036;28;89037;-68
2023/08/23 05:27:39;;;;;;;7.40;5.30;;;26.40;99.90;;;;;;6245936;27;89035;-68
2023/08/23 05:30:41;;;;;;;6.35;5.25;;;26.40;99.90;;;;;;6229184;28;88149;-68
2023/08/23 05:33:43;;;;;;;6.95;5.80;;;26.50;99.90;;;;;;6228979;28;89055;-68
2023/08/23 05:36:45;;;;;;;6.45;5.82;;;26.50;99.90;;;;;;6230905;28;89085;-68
2023/08/23 05:39:48;;;;;;;6.15;5.35;;;26.40;99.90;;;;;;6242825;28;89063;-68
2023/08/23 05:42:51;;;;;;;7.28;5.40;;;26.50;99.90;;;;;;6245480;28;88312;-68
2023/08/23 05:45:54;;;;;;;7.00;5.47;;;26.50;99.90;;;;;;6239117;28;89157;-68
2023/08/23 05:48:56;;;;;;;6.28;5.07;;;26.50;99.90;;;;;;6240724;28;89163;-68
2023/08/23 05:51:58;;;;;;;7.22;5.35;;;26.50;99.90;;;;;;6230419;28;88836;-68
2023/08/23 05:55:00;;;;;;;6.13;5.32;;;26.50;99.90;;;;;;6241458;27;87980;-68
2023/08/23 05:58:04;;;;;;;6.03;5.40;;;26.60;99.90;;;;;;6236087;28;89082;-68
2023/08/23 06:01:06;;;;;;;7.75;5.70;;;26.60;99.90;;;;;;6254672;27;89038;-68
2023/08/23 06:04:08;;;;;;;6.05;5.45;;;26.60;99.90;;;;;;6238535;28;88756;-68
2023/08/23 06:07:10;;;;;;;6.72;5.35;;;26.60;99.90;;;;;;6235682;28;89106;-68
2023/08/23 06:10:12;;;;;;;9.52;5.45;;;26.50;99.90;;;;;;6255949;27;89937;-68
2023/08/23 06:13:16;;;;;;;6.47;5.15;;;26.50;99.90;;;;;;6237157;28;87636;-67
2023/08/23 06:16:18;;;;;;;5.32;4.82;;;26.60;99.90;;;;;;6233369;28;88937;-67
2023/08/23 06:19:20;;;;;;;6.82;5.43;;;26.60;99.90;;;;;;6245834;28;89217;-68
2023/08/23 06:22:22;;;;;;;5.90;5.30;;;26.60;99.90;;;;;;6235361;28;90192;-68
2023/08/23 06:25:24;;;;;;;6.00;5.22;;;26.60;99.90;;;;;;6242702;27;89059;-68
2023/08/23 06:28:28;;;;;;;7.40;5.85;;;26.60;99.90;;;;;;6249435;27;89062;-68
2023/08/23 06:31:30;;;;;;;6.30;5.68;;;26.50;99.90;;;;;;6237485;28;89109;-67
2023/08/23 06:34:32;;;;;;;7.05;5.90;;;26.60;99.90;;;;;;6239379;28;88244;-68
2023/08/23 06:37:34;;;;;;;6.43;5.82;;;26.60;99.90;;;;;;6256576;27;89940;-68
2023/08/23 06:40:37;;;;;;;6.63;5.88;;;26.60;99.90;;;;;;6244546;28;88814;-68
2023/08/23 06:43:41;;;;;;;6.72;6.05;;;26.60;99.90;;;;;;6253227;28;88534;-68
2023/08/23 06:46:43;;;;;;;6.00;5.40;;;26.60;99.90;;;;;;6252270;27;89034;-68
2023/08/23 06:49:45;;;;;;;6.53;5.93;;;26.60;99.90;;;;;;6241099;28;87996;-68
2023/08/23 06:52:47;;;;;;;6.07;5.43;;;26.60;99.90;;;;;;6252045;28;90075;-68
2023/08/23 06:55:48;;;;;;;6.63;6.00;;;26.60;99.90;;;;;;6241598;28;89127;-67
2023/08/23 06:58:52;;;;;;;6.20;5.60;;;26.60;99.90;;;;;;6242418;27;89053;-67
2023/08/23 07:01:54;;;;;;;6.78;6.18;;;26.60;99.90;;;;;;6237158;28;90474;-67
2023/08/23 07:04:56;;;;;;;6.55;5.95;;;26.60;99.90;;;;;;6232828;28;89108;-68
2023/08/23 07:07:58;;;;;;;6.95;6.25;;;26.60;99.90;;;;;;6245239;28;89078;-67
2023/08/23 07:11:00;;;;;;;6.70;6.03;;;26.60;99.90;;;;;;6236519;28;89093;-67
2023/08/23 07:14:03;;;;;;;6.82;6.22;;;26.60;99.90;;;;;;6240157;27;88428;-67
2023/08/23 07:17:05;;;;;;;7.15;6.45;;;26.60;99.90;;;;;;6246047;27;89113;-67
2023/08/23 07:20:09;;;;;;;7.25;6.55;;;26.60;99.90;;;;;;6231130;28;89286;-68
2023/08/23 07:23:11;;;;;;;6.93;6.30;;;26.60;99.90;;;;;;6232121;28;90023;-67
2023/08/23 07:26:14;;;;;;;6.85;6.15;;;26.60;99.90;;;;;;6246432;27;91647;-68
2023/08/23 07:29:18;;;;;;;6.95;6.25;;;26.60;99.90;;;;;;6237131;27;87932;-67
2023/08/23 07:32:20;;;;;;;7.25;6.50;;;26.60;99.90;;;;;;6240430;27;89116;-67
2023/08/23 07:35:22;;;;;;;8.00;7.20;;;26.60;99.90;;;;;;6234045;28;89163;-67
2023/08/23 07:38:24;;;;;;;7.10;6.40;;;26.60;99.90;;;;;;6252018;27;88839;-67
2023/08/23 07:41:26;;;;;;;7.20;6.50;;;26.70;99.90;;;;;;6245333;28;89560;-67
2023/08/23 07:44:29;;;;;;;6.85;6.18;;;26.60;99.90;;;;;;6247323;28;88573;-67
2023/08/23 07:47:31;;;;;;;7.88;7.07;;;26.60;99.90;;;;;;6238076;28;89526;-68
2023/08/23 07:50:33;;;;;;;7.03;6.38;;;26.60;99.90;;;;;;6245310;28;89139;-67
2023/08/23 07:53:36;;;;;;;7.05;6.43;;;26.60;99.90;;;;;;6237015;27;89976;-67
2023/08/23 07:56:38;;;;;;;7.28;6.57;;;26.60;99.90;;;;;;6246985;28;89066;-67
2023/08/23 07:59:41;;;;;;;7.10;6.40;;;26.70;99.90;;;;;;6234015;28;89051;-67
2023/08/23 08:02:43;;;;;;;7.10;6.40;;;26.60;99.90;;;;;;6239454;28;89026;-67
2023/08/23 08:05:45;;;;;;;7.40;6.57;;;26.60;99.90;;;;;;6232323;28;89054;-68
2023/08/23 08:08:47;;;;;;;7.00;6.25;;;26.70;99.90;;;;;;6239877;28;89218;-67
2023/08/23 08:11:49;;;;;;;7.00;6.40;;;26.60;99.90;;;;;;6232330;28;89024;-67
2023/08/23 08:14:52;;;;;;;7.55;6.80;;;26.70;99.90;;;;;;6241591;28;88616;-67
2023/08/23 08:17:54;;;;;;;7.35;6.65;;;26.70;99.90;;;;;;6231838;28;89074;-67
2023/08/23 08:20:56;;;;;;;7.25;6.57;;;26.70;99.90;;;;;;6230877;28;89104;-67
2023/08/23 08:23:58;;;;;;;7.18;6.57;;;26.70;99.90;;;;;;6217137;28;89920;-67
2023/08/23 08:27:02;;;;;;;6.90;6.30;;;26.70;99.90;;;;;;6217038;28;88993;-67
2023/08/23 08:30:07;;;;;;;7.43;6.72;;;26.70;99.90;;;;;;6211228;28;90168;-67
2023/08/23 08:33:09;;;;;;;7.68;6.95;;;26.70;99.90;;;;;;6210971;28;89042;-67
2023/08/23 08:36:12;;;;;;;7.63;6.93;;;26.70;99.90;;;;;;6221183;28;89073;-67
2023/08/23 08:39:14;;;;;;;6.95;6.30;;;26.70;99.90;;;;;;6212619;28;89327;-67
2023/08/23 08:42:16;;;;;;;7.07;6.47;;;26.70;99.90;;;;;;6214302;28;89633;-67
2023/08/23 08:45:20;;;;;;;7.25;6.55;;;26.70;99.90;;;;;;6214241;28;88850;-67
2023/08/23 08:48:22;;;;;;;7.30;6.60;;;26.70;99.90;;;;;;6216904;28;89042;-67
2023/08/23 08:51:27;;;;;;;7.13;6.47;;;26.70;99.90;;;;;;6216559;28;89353;-68
2023/08/23 08:54:31;;;;;;;7.43;6.72;;;26.70;99.90;;;;;;6221832;28;90089;-67
2023/08/23 08:57:33;;;;;;;7.60;6.90;;;26.70;99.90;;;;;;6217894;28;90510;-67
2023/08/23 09:00:37;;;;;;;7.82;7.03;;;26.70;99.90;;;;;;6209094;28;89007;-67
2023/08/23 09:03:41;;;;;;;7.32;6.63;;;26.70;99.90;;;;;;6218921;28;89037;-67
2023/08/23 09:06:45;;;;;;;7.57;6.78;;;26.70;99.90;;;;;;6211843;28;89274;-67
2023/08/23 09:09:47;;;;;;;7.30;6.70;;;26.70;99.90;;;;;;6221661;28;89014;-68
2023/08/23 09:12:51;;;;;;;7.07;6.47;;;26.70;99.90;;;;;;6217803;28;89014;-67
2023/08/23 09:15:55;;;;;;;7.15;6.55;;;26.70;99.90;;;;;;6211573;28;88310;-67
2023/08/23 09:18:58;;;;;;;7.30;6.60;;;26.70;99.90;;;;;;6205651;28;89227;-67
2023/08/23 09:22:00;;;;;;;7.55;6.85;;;26.70;99.90;;;;;;6234780;28;89415;-68
2023/08/23 09:25:02;;;;;;;7.88;7.18;;;26.70;99.90;;;;;;6232023;28;90178;-67
2023/08/23 09:28:04;;;;;;;7.22;6.63;;;26.70;99.90;;;;;;6239628;28;89684;-68
2023/08/23 09:31:10;;;;;;;7.60;6.90;;;26.70;99.90;;;;;;6231737;28;89065;-67
2023/08/23 09:34:13;;;;;;;7.45;6.75;;;26.70;99.90;;;;;;6233891;28;89219;-68
2023/08/23 09:37:15;;;;;;;7.22;6.63;;;26.70;99.90;;;;;;6249851;28;89708;-67
2023/08/23 09:40:18;;;;;;;7.07;6.40;;;26.70;99.90;;;;;;6247853;28;89182;-67
2023/08/23 09:43:24;;;;;;;7.07;6.47;;;26.80;99.90;;;;;;6239821;28;89395;-67
2023/08/23 09:46:27;;;;;;;7.30;6.55;;;26.80;99.90;;;;;;6243109;28;88315;-67
2023/08/23 09:49:33;;;;;;;7.30;6.60;;;26.70;99.90;;;;;;6233852;28;89306;-67
2023/08/23 09:52:38;;;;;;;6.78;6.25;;;26.70;99.90;;;;;;6231365;27;89385;-67
2023/08/23 09:55:40;;;;;;;7.03;6.43;;;26.70;99.90;;;;;;6228756;28;89947;-67
2023/08/23 09:58:42;;;;;;;7.38;6.68;;;26.70;99.90;;;;;;6243850;27;89133;-67
2023/08/23 10:01:46;;;;;;;7.65;6.95;;;26.70;99.90;;;;;;6231434;28;89186;-67
2023/08/23 10:04:48;;;;;;;7.10;6.50;;;26.80;99.90;;;;;;6242061;28;89224;-67
2023/08/23 10:07:52;;;;;;;7.43;6.82;;;26.70;99.90;;;;;;6249120;28;89414;-67
2023/08/23 10:10:54;;;;;;;7.13;6.53;;;26.80;99.90;;;;;;6235990;27;88956;-67
2023/08/23 10:13:59;;;;;;;7.07;6.47;;;26.80;99.90;;;;;;6230318;28;89014;-67
2023/08/23 10:17:05;;;;;;;7.45;6.85;;;26.80;99.90;;;;;;6230518;28;88644;-66
2023/08/23 10:20:09;;;;;;;8.13;7.32;;;26.80;99.90;;;;;;6235590;28;89003;-67
2023/08/23 10:23:16;;;;;;;7.65;6.93;;;26.80;99.90;;;;;;6236947;28;88956;-67
2023/08/23 10:26:19;;;;;;;7.10;6.50;;;26.80;99.90;;;;;;6230312;28;90355;-67
2023/08/23 10:29:26;;;;;;;7.53;6.88;;;26.80;99.90;;;;;;6237267;28;89081;-66
2023/08/23 10:32:36;;;;;;;7.45;6.82;;;26.80;99.90;;;;;;6239326;28;88929;-67
2023/08/23 10:35:40;;;;;;;7.75;7.05;;;26.80;99.90;;;;;;6230975;28;89027;-67
2023/08/23 10:38:42;;;;;;;7.50;6.88;;;26.80;99.90;;;;;;6235654;28;89136;-67
2023/08/23 10:41:44;;;;;;;7.45;6.85;;;26.80;99.90;;;;;;6232021;27;89069;-67
2023/08/23 10:44:54;;;;;;;7.60;7.00;;;26.80;99.90;;;;;;6233475;28;89034;-67
2023/08/23 10:47:57;;;;;;;7.53;6.82;;;26.80;99.90;;;;;;6236832;28;88752;-67
2023/08/23 10:50:59;;;;;;;7.63;7.03;;;26.80;99.90;;;;;;6244893;27;89106;-67
2023/08/23 10:54:02;;;;;;;7.90;7.13;;;26.80;99.90;;;;;;6233493;28;89007;-67
2023/08/23 10:57:04;;;;;;;7.63;7.03;;;26.80;99.90;;;;;;6245039;28;90028;-67
2023/08/23 11:00:07;;;;;;;7.32;6.72;;;26.80;99.90;;;;;;6234105;28;89637;-67
2023/08/23 11:03:13;;;;;;;7.68;7.07;;;26.80;99.90;;;;;;6233192;28;90674;-67
2023/08/23 11:06:15;;;;;;;7.95;7.25;;;26.90;99.90;;;;;;6234884;28;89097;-66
2023/08/23 11:09:17;;;;;;;7.40;6.80;;;26.80;99.90;;;;;;6245861;27;89074;-67
2023/08/23 11:12:19;;;;;;;8.00;7.22;;;26.80;99.90;;;;;;6235913;28;89108;-67
2023/08/23 11:15:21;;;;;;;7.80;7.10;;;26.90;99.90;;;;;;6232711;28;88135;-68
2023/08/23 11:18:25;;;;;;;7.28;6.57;;;26.90;99.90;;;;;;6241778;28;88379;-67
2023/08/23 11:21:27;;;;;;;7.78;7.07;;;26.90;99.90;;;;;;6239647;28;89093;-68
2023/08/23 11:24:30;;;;;;;8.07;7.38;;;26.80;99.90;;;;;;6237313;27;88137;-67
2023/08/23 11:27:32;;;;;;;7.40;6.80;;;26.90;99.90;;;;;;6251446;27;90521;-68
2023/08/23 11:30:35;;;;;;;7.93;7.13;;;26.80;99.90;;;;;;6238178;28;89531;-67
2023/08/23 11:33:38;;;;;;;7.80;7.10;;;26.90;99.90;;;;;;6244942;28;89495;-67
2023/08/23 11:36:40;;;;;;;7.13;6.53;;;26.80;99.90;;;;;;6235012;28;88987;-68
2023/08/23 11:39:42;;;;;;;7.78;7.07;;;26.90;99.90;;;;;;6238560;28;89137;-67
2023/08/23 11:42:46;;;;;;;7.55;6.95;;;26.90;99.90;;;;;;6236978;28;89081;-67
2023/08/23 11:45:50;;;;;;;7.38;6.78;;;26.90;99.90;;;;;;6236216;28;89094;-68
2023/08/23 11:48:55;;;;;;;7.50;6.85;;;26.90;99.90;;;;;;6240565;28;88316;-68
2023/08/23 11:51:59;;;;;;;8.02;7.35;;;26.90;99.90;;;;;;6253686;27;88274;-67
2023/08/23 11:55:03;;;;;;;6.88;6.30;;;26.90;99.90;;;;;;6244385;28;88067;-67
2023/08/23 11:58:05;;;;;;;7.57;6.90;;;26.90;99.90;;;;;;6231084;28;90072;-68
2023/08/23 12:01:07;;;;;;;7.40;6.70;;;26.90;99.90;;;;;;6252255;28;87998;-67
2023/08/23 12:04:12;;;;;;;7.40;6.80;;;26.90;99.90;;;;;;6245440;28;89173;-68
2023/08/23 12:07:14;;;;;;;7.10;6.50;;;26.90;99.90;;;;;;6242630;28;89097;-67
2023/08/23 12:10:16;;;;;;;7.13;6.45;;;26.90;99.90;;;;;;6242627;27;89283;-67
2023/08/23 12:13:19;;;;;;;7.13;6.53;;;26.90;99.90;;;;;;6245161;28;87981;-67
2023/08/23 12:16:21;;;;;;;7.10;6.50;;;26.90;99.90;;;;;;6231949;28;89266;-67
2023/08/23 12:19:24;;;;;;;7.10;6.32;;;26.90;99.90;;;;;;6230737;28;88497;-67
2023/08/23 12:22:27;;;;;;;7.40;6.80;;;26.90;99.90;;;;;;6233439;28;89081;-67
2023/08/23 12:25:29;;;;;;;7.40;6.80;;;26.90;99.90;;;;;;6240185;28;89042;-67
2023/08/23 12:28:31;;;;;;;6.65;6.15;;;26.90;99.90;;;;;;6234789;28;89173;-67
2023/08/23 12:31:33;;;;;;;8.23;7.53;;;27.00;99.90;;;;;;6238087;27;89348;-67
2023/08/23 12:34:36;;;;;;;7.05;6.45;;;26.90;99.90;;;;;;6242838;28;87936;-67
2023/08/23 12:37:38;;;;;;;7.70;7.00;;;26.90;99.90;;;;;;6231717;28;89191;-67
2023/08/23 12:40:40;;;;;;;7.25;6.63;;;26.90;99.90;;;;;;6230550;28;87817;-67
2023/08/23 12:43:42;;;;;;;7.10;6.50;;;26.90;99.90;;;;;;6240994;27;89148;-67
2023/08/23 12:46:45;;;;;;;7.00;6.40;;;26.90;99.90;;;;;;6247883;28;89060;-67
2023/08/23 12:49:48;;;;;;;6.60;6.10;;;27.00;99.90;;;;;;6245411;27;88767;-67
2023/08/23 12:52:50;;;;;;;7.03;6.43;;;26.90;99.90;;;;;;6237018;28;89177;-67
2023/08/23 12:55:53;;;;;;;7.20;6.60;;;27.00;99.90;;;;;;6236684;28;89026;-67
2023/08/23 12:58:55;;;;;;;7.28;6.53;;;27.00;99.90;;;;;;6242046;28;90352;-67
2023/08/23 13:01:58;;;;;;;6.93;6.32;;;27.00;99.90;;;;;;6234249;28;88954;-67
2023/08/23 13:05:02;;;;;;;7.05;6.45;;;27.00;99.90;;;;;;6245764;28;89096;-67
2023/08/23 13:08:05;;;;;;;6.63;6.13;;;27.00;99.90;;;;;;6244607;28;88745;-67
2023/08/23 13:11:07;;;;;;;6.70;6.10;;;27.00;99.90;;;;;;6231110;28;87963;-67
2023/08/23 13:14:09;;;;;;;7.03;6.43;;;27.00;99.90;;;;;;6249551;28;89140;-67
2023/08/23 13:17:11;;;;;;;6.43;5.90;;;27.00;99.90;;;;;;6237042;28;87962;-67
2023/08/23 13:20:15;;;;;;;7.03;6.43;;;27.00;99.90;;;;;;6238914;28;88288;-67
2023/08/23 13:23:18;;;;;;;6.93;6.28;;;27.00;99.90;;;;;;6243063;28;88059;-67
2023/08/23 13:26:21;;;;;;;7.03;6.43;;;27.00;99.90;;;;;;6247261;28;88566;-67
2023/08/23 13:29:23;;;;;;;6.95;6.35;;;27.00;99.90;;;;;;6248863;27;90053;-67
2023/08/23 13:32:26;;;;;;;7.07;6.53;;;27.00;99.90;;;;;;6229290;28;89335;-67
2023/08/23 13:35:32;;;;;;;6.20;5.70;;;27.00;99.90;;;;;;6233084;28;88103;-67
2023/08/23 13:38:36;;;;;;;6.47;5.97;;;27.00;99.90;;;;;;6237683;28;88001;-67
2023/08/23 13:41:40;;;;;;;6.50;5.97;;;27.00;99.90;;;;;;6236538;28;87826;-67
2023/08/23 13:44:44;;;;;;;6.50;6.00;;;27.00;99.90;;;;;;6250523;28;88031;-67
2023/08/23 13:47:48;;;;;;;6.28;5.78;;;27.00;99.90;;;;;;6233979;28;88036;-68
2023/08/23 13:50:53;;;;;;;6.28;5.78;;;27.00;99.90;;;;;;6244017;28;88311;-68
2023/08/23 13:53:56;;;;;;;6.35;5.85;;;27.00;99.90;;;;;;6239335;28;88034;-67
2023/08/23 13:56:59;;;;;;;7.45;6.75;;;27.00;99.90;;;;;;6238170;28;88196;-67
2023/08/23 14:00:01;;;;;;;6.78;6.18;;;27.00;99.90;;;;;;6241553;28;89357;-67
2023/08/23 14:03:04;;;;;;;6.45;5.95;;;27.10;99.90;;;;;;6242277;27;89197;-68
2023/08/23 14:06:08;;;;;;;6.40;5.90;;;27.00;99.90;;;;;;6245641;28;89175;-68
2023/08/23 14:09:10;;;;;;;6.90;6.30;;;27.00;99.90;;;;;;6240782;28;88262;-68
2023/08/23 14:12:12;;;;;;;6.70;6.20;;;27.10;99.90;;;;;;6233087;28;89151;-68
2023/08/23 14:15:14;;;;;;;6.75;6.15;;;27.00;99.90;;;;;;6238773;28;89241;-67
2023/08/23 14:18:16;;;;;;;6.30;5.80;;;27.00;99.90;;;;;;6243629;27;89100;-68
2023/08/23 14:21:20;;;;;;;6.43;5.93;;;27.00;99.90;;;;;;6234726;28;88559;-68
2023/08/23 14:24:22;;;;;;;6.50;6.00;;;27.10;99.90;;;;;;6250702;28;88966;-68
2023/08/23 14:27:23;;;;;;;6.25;5.75;;;27.10;99.90;;;;;;6242770;28;89080;-68
2023/08/23 14:30:25;;;;;;;6.50;6.00;;;27.00;99.90;;;;;;6242919;27;89876;-67
2023/08/23 14:33:27;;;;;;;6.80;6.30;;;27.10;99.90;;;;;;6252658;28;89082;-68
2023/08/23 14:36:31;;;;;;;7.03;6.43;;;27.10;99.90;;;;;;6233052;28;89092;-68
2023/08/23 14:39:33;;;;;;;6.45;5.85;;;27.10;99.90;;;;;;6235034;28;87997;-68
2023/08/23 14:42:35;;;;;;;6.38;5.78;;;27.10;99.90;;;;;;6246242;27;89076;-68
2023/08/23 14:45:37;;;;;;;6.00;5.50;;;27.10;99.90;;;;;;6238001;28;89221;-68
2023/08/23 14:48:39;;;;;;;6.22;5.72;;;27.10;99.90;;;;;;6235904;28;89067;-68
2023/08/23 14:51:43;;;;;;;6.38;5.88;;;27.10;99.90;;;;;;6239152;28;87302;-68
2023/08/23 14:54:47;;;;;;;6.68;6.07;;;27.10;99.90;;;;;;6234288;28;88989;-67
2023/08/23 14:57:49;;;;;;;6.45;5.95;;;27.10;99.90;;;;;;6232586;28;89055;-68
2023/08/23 15:00:51;;;;;;;6.80;6.20;;;27.10;99.90;;;;;;6238201;28;91334;-68
2023/08/23 15:03:53;;;;;;;6.15;5.65;;;27.10;99.90;;;;;;6236413;28;89279;-68
2023/08/23 15:06:56;;;;;;;7.00;6.40;;;27.10;99.90;;;;;;6242069;28;89073;-68
2023/08/23 15:09:58;;;;;;;6.38;5.88;;;27.10;99.90;;;;;;6236956;27;89410;-68
2023/08/23 15:13:01;;;;;;;6.07;5.57;;;27.10;99.90;;;;;;6242421;28;89089;-68
2023/08/23 15:16:03;;;;;;;6.75;6.15;;;27.10;99.90;;;;;;6246130;28;89090;-68
2023/08/23 15:19:06;;;;;;;6.18;5.57;;;27.10;99.90;;;;;;6234182;28;88820;-68
2023/08/23 15:22:10;;;;;;;6.35;5.85;;;27.10;99.90;;;;;;6249438;28;88070;-68
2023/08/23 15:25:12;;;;;;;6.45;5.95;;;27.10;99.90;;;;;;6254522;27;87963;-67
2023/08/23 15:28:15;;;;;;;6.13;5.63;;;27.10;99.90;;;;;;6247016;28;89079;-68
2023/08/23 15:31:17;;;;;;;5.97;5.50;;;27.10;99.90;;;;;;6246576;28;90009;-68
2023/08/23 15:34:19;;;;;;;6.40;5.90;;;27.10;99.90;;;;;;6241690;28;89083;-68
2023/08/23 15:37:24;;;;;;;6.30;5.80;;;27.10;99.90;;;;;;6231601;28;89137;-68
2023/08/23 15:40:26;;;;;;;6.35;5.75;;;27.10;99.90;;;;;;6236087;28;89217;-67
2023/08/23 15:43:28;;;;;;;6.40;5.90;;;27.10;99.90;;;;;;6254557;27;88983;-68
2023/08/23 15:46:31;;;;;;;6.35;5.85;;;27.10;99.90;;;;;;6242772;28;88947;-67